Hartford, Connecticut
Current Conditions -  °F | °C
As of 12:53 PM on Friday 19 Dec 2014 (Local Time) from KHFD Reporting Station
Overcast Overcast  
Wind Chill: 30°   Ceiling: 3600
Heat Index: 36°   Visibility: 10mi
Dew Point: 21°   Wind: 8mph
Humidity: 55%   Direction: 330°NNW
Pressure: 29.99"   Gusts: NA
Location:  41.76°N, 72.67°W
Report Text: KHFD 191753Z 33007KT 10SM OVC036 02/M06 A2999 RMK AO2 SLP156 T00221061 10022 20011 57007
Loading
Personal Weather Stations






























Interactive Weather Map New forecast layout! Learn more

10-Day Weather Forecast

Advertisements
Track Severe Weather on mobile